map of LRT home
LRT - Airport
Location
City:  Lorient, Bretagne, France
Name:Lann Bihoue
ICAO:LFRH
IATA:LRT

Details
Type:Airport (Aerodrome, Airfield)
Use:Military
Latitude:4745'38"N (47.760533)
Longitude:326'24"W (-3.439952)
Elevation:169 ft (52 m)
Variation:1.01W (WMM2015 magnetic declination)
0.14 annual change
Runways:2
Longest:7884 × 148 ft (2403 × 45 m)

Time
Time Zone:UTC+1 (DST+2)
Local Time:

Weather
METAR:LFRH 162200Z AUTO 28007KT CAVOK 06/03 Q1011 TEMPO 4000 SHRA BKN015TCU BKN020
TAF:LFRH 161700Z 1618/1718 30012KT 9999 SCT025 SCT050
BECMG 1619/1621 27008KT
TEMPO 1622/1705 4000 SHRA BKN015TCU BKN020 PROB30
TEMPO 1709/1712 SHRA
BECMG 1711/1713 35012G22KT
BECMG 1715/1717 CAVOK

Related Locations
Nearby:
Farthest:NZTI: 12116 mi / 19499 km
Taieri, OTA, NZ

Find:

   beyond  
but within

Other Information
Maps:
NOTAMs:
Links:
Sources:

  
  • flag of France
  • flag of Bretagne
  

Sectional Chart

Flight Planning
at skyvector.com

Satellite Image

Google Maps Satellite view

 

Copyright © 2004-2019 Karl L. Swartz. All rights reserved.
The Great Circle Mapper name and logo are trademarks of the Great Circle Mapper.
All other trademarks mentioned herein belong to their respective owners.
Please see credits for attibutions and further copyright information.

  Follow gcmap on Facebook Follow gcmap on Twitter Follow gcmap on Google+ GCmap on LinkedIn

hCard Microformat

Geo Microformat